createdAt,value
2022-12-14T00:01:28.216Z,-3.90
2022-12-14T00:03:55.945Z,-3.90
2022-12-14T00:06:25.462Z,-3.90
2022-12-14T00:08:56.755Z,-3.90
2022-12-14T00:11:24.095Z,-3.90
2022-12-14T00:14:00.299Z,-3.90
2022-12-14T00:16:29.685Z,-3.90
2022-12-14T00:18:59.882Z,-3.90
2022-12-14T00:21:27.706Z,-3.90
2022-12-14T00:23:55.266Z,-4.70
2022-12-14T00:26:31.012Z,-4.20
2022-12-14T00:28:58.935Z,-4.30
2022-12-14T00:31:25.887Z,-4.30
2022-12-14T00:33:52.987Z,-4.10
2022-12-14T00:36:20.117Z,-4.20
2022-12-14T00:38:46.689Z,-4.10
2022-12-14T00:41:13.232Z,-4.00
2022-12-14T00:43:40.157Z,-4.20
2022-12-14T00:46:07.209Z,-4.00
2022-12-14T00:48:34.356Z,-4.00
2022-12-14T00:51:00.988Z,-4.00
2022-12-14T00:53:27.794Z,-3.90
2022-12-14T00:55:54.632Z,-4.00
2022-12-14T00:58:23.251Z,-4.00
2022-12-14T01:01:06.790Z,-4.10
2022-12-14T01:03:34.330Z,-4.10
2022-12-14T01:06:01.072Z,-4.10
2022-12-14T01:08:35.126Z,-4.10
2022-12-14T01:11:06.565Z,-4.20
2022-12-14T01:13:33.712Z,-4.20
2022-12-14T01:16:06.158Z,-4.10
2022-12-14T01:18:35.137Z,-4.10
2022-12-14T01:21:19.961Z,-4.10
2022-12-14T01:23:47.754Z,-4.10
2022-12-14T01:26:16.221Z,-4.20
2022-12-14T01:28:43.076Z,-4.20
2022-12-14T01:31:12.582Z,-4.20
2022-12-14T01:33:39.316Z,-4.30
2022-12-14T01:36:17.713Z,-4.60
2022-12-14T01:38:45.368Z,-4.30
2022-12-14T01:41:39.534Z,-4.60
2022-12-14T01:44:09.077Z,-4.30
2022-12-14T01:46:57.988Z,-4.80
2022-12-14T01:49:30.189Z,-4.30
2022-12-14T01:52:14.672Z,-4.30
2022-12-14T01:54:56.469Z,-4.30
2022-12-14T01:57:39.051Z,-4.40
2022-12-14T02:00:08.926Z,-4.40
2022-12-14T02:02:39.552Z,-4.40
2022-12-14T02:05:09.196Z,-4.50
2022-12-14T02:07:36.204Z,-4.50
2022-12-14T02:10:05.433Z,-4.50
2022-12-14T02:12:38.740Z,-4.60
2022-12-14T02:15:06.121Z,-4.60
2022-12-14T02:17:32.844Z,-4.70
2022-12-14T02:19:59.427Z,-4.60
2022-12-14T02:23:15.124Z,-4.70
2022-12-14T02:26:09.856Z,-4.70
2022-12-14T02:29:01.561Z,-4.70
2022-12-14T02:31:48.860Z,-4.70
2022-12-14T02:34:41.190Z,-4.80
2022-12-14T02:37:26.328Z,-4.80
2022-12-14T02:40:04.128Z,-4.80
2022-12-14T02:43:09.343Z,-4.80
2022-12-14T02:45:50.333Z,-4.80
2022-12-14T02:48:20.847Z,-4.70
2022-12-14T02:50:59.635Z,-4.80
2022-12-14T02:53:48.965Z,-4.90
2022-12-14T02:56:22.681Z,-5.00
2022-12-14T02:58:50.985Z,-5.10
2022-12-14T03:01:26.009Z,-5.30
2022-12-14T03:03:52.643Z,-5.00
2022-12-14T03:06:28.054Z,-5.00
2022-12-14T03:09:17.564Z,-5.10
2022-12-14T03:11:56.095Z,-5.10
2022-12-14T03:14:31.442Z,-5.10
2022-12-14T03:17:09.677Z,-5.20
2022-12-14T03:19:41.410Z,-5.20
2022-12-14T03:22:11.652Z,-5.30
2022-12-14T03:24:43.306Z,-5.20
2022-12-14T03:27:22.129Z,-5.20
2022-12-14T03:29:58.971Z,-5.10
2022-12-14T03:32:29.422Z,-5.20
2022-12-14T03:35:01.265Z,-5.10
2022-12-14T03:37:54.681Z,-5.10
2022-12-14T03:40:29.547Z,-5.10
2022-12-14T03:43:20.788Z,-5.20
2022-12-14T03:46:19.852Z,-5.20
2022-12-14T03:48:53.560Z,-5.30
2022-12-14T03:51:28.272Z,-5.40
2022-12-14T03:54:06.678Z,-5.40
2022-12-14T03:56:48.294Z,-5.40
2022-12-14T03:59:39.374Z,-5.40
2022-12-14T04:02:14.315Z,-5.40
2022-12-14T04:04:50.966Z,-5.50
2022-12-14T04:07:26.509Z,-5.50
2022-12-14T04:09:59.186Z,-5.50
2022-12-14T04:12:54.424Z,-5.50
2022-12-14T04:15:50.494Z,-5.40
2022-12-14T04:18:52.115Z,-5.30
2022-12-14T04:21:43.004Z,-5.30
2022-12-14T04:24:36.156Z,-5.30
2022-12-14T04:27:32.662Z,-5.30
2022-12-14T04:30:01.939Z,-5.30
2022-12-14T04:32:51.793Z,-5.30
2022-12-14T04:35:28.427Z,-5.40
2022-12-14T04:38:00.772Z,-5.50
2022-12-14T04:40:45.996Z,-5.40
2022-12-14T04:43:17.101Z,-5.30
2022-12-14T04:45:52.258Z,-5.40
2022-12-14T04:48:54.246Z,-5.50
2022-12-14T04:51:31.424Z,-5.40
2022-12-14T04:54:09.220Z,-5.60
2022-12-14T04:56:54.999Z,-5.40
2022-12-14T04:59:22.541Z,-5.50
2022-12-14T05:02:17.232Z,-5.50
2022-12-14T05:04:59.996Z,-5.60
2022-12-14T05:07:40.247Z,-5.50
2022-12-14T05:10:11.162Z,-5.50
2022-12-14T05:13:03.417Z,-5.50
2022-12-14T05:15:42.675Z,-5.50
2022-12-14T05:18:10.189Z,-5.60
2022-12-14T05:20:36.849Z,-5.60
2022-12-14T05:23:03.460Z,-5.60
2022-12-14T05:25:30.099Z,-5.60
2022-12-14T05:27:56.763Z,-5.60
2022-12-14T05:30:23.565Z,-5.50
2022-12-14T05:32:50.190Z,-5.40
2022-12-14T05:35:17.085Z,-5.70
2022-12-14T05:37:43.622Z,-5.50
2022-12-14T05:40:11.067Z,-5.50
2022-12-14T05:42:44.133Z,-5.50
2022-12-14T05:45:13.037Z,-5.50
2022-12-14T05:47:40.002Z,-5.50
2022-12-14T05:50:07.826Z,-5.40
2022-12-14T05:52:34.848Z,-5.40
2022-12-14T05:55:04.554Z,-5.40
2022-12-14T05:57:31.898Z,-5.50
2022-12-14T05:59:58.495Z,-5.40
2022-12-14T06:02:25.281Z,-5.20
2022-12-14T06:04:51.947Z,-5.40
2022-12-14T06:07:21.776Z,-5.80
2022-12-14T06:09:52.519Z,-5.50
2022-12-14T06:12:19.124Z,-5.50
2022-12-14T06:14:45.808Z,-5.50
2022-12-14T06:17:12.763Z,-6.00
2022-12-14T06:19:39.368Z,-5.60
2022-12-14T06:22:06.341Z,-5.60
2022-12-14T06:24:33.086Z,-5.70
2022-12-14T06:26:59.678Z,-5.60
2022-12-14T06:29:26.455Z,-5.40
2022-12-14T06:31:53.092Z,-5.60
2022-12-14T06:34:23.413Z,-5.60
2022-12-14T06:36:51.493Z,-5.40
2022-12-14T06:39:18.147Z,-5.50
2022-12-14T06:41:48.615Z,-5.60
2022-12-14T06:44:15.195Z,-5.70
2022-12-14T06:46:42.521Z,-5.70
2022-12-14T06:49:13.846Z,-5.60
2022-12-14T06:51:40.754Z,-5.60
2022-12-14T06:54:10.333Z,-5.60
2022-12-14T06:56:37.659Z,-5.60
2022-12-14T06:59:05.368Z,-6.20
2022-12-14T07:01:32.054Z,-5.70
2022-12-14T07:03:59.566Z,-5.70
2022-12-14T07:06:27.890Z,-5.80
2022-12-14T07:08:59.235Z,-5.80
2022-12-14T07:11:26.891Z,-5.90
2022-12-14T07:13:54.333Z,-5.80
2022-12-14T07:16:23.993Z,-5.80
2022-12-14T07:18:51.436Z,-5.90
2022-12-14T07:21:19.769Z,-5.80
2022-12-14T07:23:48.176Z,-5.70
2022-12-14T07:26:23.769Z,-5.80
2022-12-14T07:28:51.424Z,-5.80
2022-12-14T07:31:23.236Z,-5.80
2022-12-14T07:33:53.011Z,-5.90
2022-12-14T07:36:21.267Z,-5.90
2022-12-14T07:38:49.766Z,-6.10
2022-12-14T07:41:25.472Z,-5.80
2022-12-14T07:43:54.226Z,-5.70
2022-12-14T07:46:26.427Z,-5.70
2022-12-14T07:48:55.383Z,-5.60
2022-12-14T07:51:25.255Z,-5.60
2022-12-14T07:53:52.442Z,-5.60
2022-12-14T07:56:25.233Z,-5.50
2022-12-14T07:58:52.530Z,-5.50
2022-12-14T08:01:22.289Z,-5.50
2022-12-14T08:03:51.825Z,-5.50
2022-12-14T08:06:19.836Z,-5.60
2022-12-14T08:08:46.556Z,-5.50
2022-12-14T08:11:14.435Z,-5.50
2022-12-14T08:13:43.216Z,-5.60
2022-12-14T08:16:15.266Z,-6.10
2022-12-14T08:18:42.972Z,-5.90
2022-12-14T08:21:12.573Z,-5.50
2022-12-14T08:23:39.234Z,-5.40
2022-12-14T08:26:07.170Z,-5.40
2022-12-14T08:28:35.854Z,-5.40
2022-12-14T08:31:14.893Z,-5.30
2022-12-14T08:33:42.723Z,-5.30
2022-12-14T08:36:15.036Z,-5.30
2022-12-14T08:38:42.292Z,-5.20
2022-12-14T08:41:11.685Z,-5.20
2022-12-14T08:43:39.279Z,-5.20
2022-12-14T08:46:07.067Z,-5.30
2022-12-14T08:48:34.061Z,-5.10
2022-12-14T08:51:09.327Z,-5.10
2022-12-14T08:53:37.384Z,-5.00
2022-12-14T08:56:10.472Z,-4.90
2022-12-14T08:58:37.610Z,-4.90
2022-12-14T09:01:09.852Z,-4.80
2022-12-14T09:03:36.539Z,-4.70
2022-12-14T09:06:09.226Z,-4.70
2022-12-14T09:08:36.116Z,-4.60
2022-12-14T09:11:04.693Z,-4.60
2022-12-14T09:13:32.081Z,-4.40
2022-12-14T09:16:09.143Z,-4.40
2022-12-14T09:18:35.874Z,-4.40
2022-12-14T09:21:02.512Z,-4.30
2022-12-14T09:23:31.102Z,-4.20
2022-12-14T09:26:02.970Z,-4.20
2022-12-14T09:28:30.839Z,-4.20
2022-12-14T09:30:58.861Z,-4.20
2022-12-14T09:33:26.899Z,-4.10
2022-12-14T09:35:58.922Z,-4.00
2022-12-14T09:38:25.566Z,-4.00
2022-12-14T09:41:07.285Z,-4.00
2022-12-14T09:43:42.033Z,-3.90
2022-12-14T09:46:36.994Z,-3.80
2022-12-14T09:49:04.172Z,-3.80
2022-12-14T09:51:36.852Z,-3.80
2022-12-14T09:54:08.243Z,-3.70
2022-12-14T09:56:37.348Z,-3.70
2022-12-14T09:59:05.208Z,-3.70
2022-12-14T10:05:11.240Z,-3.70
2022-12-14T10:07:40.636Z,-3.60
2022-12-14T10:10:48.345Z,-3.60
2022-12-14T10:13:32.425Z,-3.60
2022-12-14T10:16:08.338Z,-3.40
2022-12-14T10:18:59.148Z,-3.30
2022-12-14T10:21:33.890Z,-3.30
2022-12-14T10:24:03.272Z,-3.70
2022-12-14T10:26:38.232Z,-3.20
2022-12-14T10:29:21.846Z,-3.30
2022-12-14T10:32:13.838Z,-3.00
2022-12-14T10:34:41.790Z,-3.00
2022-12-14T10:37:26.498Z,-3.00
2022-12-14T10:40:22.034Z,-1.10
2022-12-14T10:43:34.991Z,-2.90
2022-12-14T10:46:40.463Z,-2.80
2022-12-14T10:49:28.935Z,-2.80
2022-12-14T10:52:05.295Z,-2.80
2022-12-14T10:54:45.201Z,-2.80
2022-12-14T10:57:19.716Z,-2.80
2022-12-14T11:00:03.332Z,-2.70
2022-12-14T11:02:37.967Z,-2.70
2022-12-14T11:05:23.401Z,-2.50
2022-12-14T11:07:50.112Z,-2.40
2022-12-14T11:10:22.773Z,-2.30
2022-12-14T11:13:12.506Z,-2.30
2022-12-14T11:15:45.386Z,-2.20
2022-12-14T11:18:11.969Z,-2.20
2022-12-14T11:20:51.072Z,-2.10
2022-12-14T11:23:25.381Z,-2.00
2022-12-14T11:25:58.861Z,-1.90
2022-12-14T11:28:39.637Z,-1.80
2022-12-14T11:31:12.664Z,-1.80
2022-12-14T11:33:44.826Z,-1.70
2022-12-14T11:36:25.941Z,-1.80
2022-12-14T11:39:01.223Z,-1.90
2022-12-14T11:41:40.191Z,-1.90
2022-12-14T11:44:15.644Z,-1.80
2022-12-14T11:46:45.060Z,-1.80
2022-12-14T11:49:27.651Z,-1.80
2022-12-14T11:52:10.336Z,-1.80
2022-12-14T11:54:39.888Z,-1.70
2022-12-14T11:57:17.463Z,-1.70
2022-12-14T12:00:00.047Z,-1.80
2022-12-14T12:02:39.460Z,-1.80
2022-12-14T12:05:13.084Z,-1.80
2022-12-14T12:07:45.852Z,-1.70
2022-12-14T12:10:12.343Z,-1.60
2022-12-14T12:12:52.264Z,-1.60
2022-12-14T12:15:43.104Z,-1.50
2022-12-14T12:18:19.877Z,-1.50
2022-12-14T12:20:58.994Z,-1.50
2022-12-14T12:23:53.212Z,-1.50
2022-12-14T12:26:25.171Z,-1.50
2022-12-14T12:29:00.026Z,-1.50
2022-12-14T12:31:34.019Z,-1.50
2022-12-14T12:34:13.560Z,-1.60
2022-12-14T12:36:51.721Z,-1.60
2022-12-14T12:39:28.144Z,-1.60
2022-12-14T12:42:21.564Z,-1.70
2022-12-14T12:44:58.123Z,-1.80
2022-12-14T12:47:46.628Z,-1.80
2022-12-14T12:50:21.455Z,-1.90
2022-12-14T12:53:03.231Z,-1.90
2022-12-14T12:55:35.779Z,-2.00
2022-12-14T12:58:09.400Z,-2.30
2022-12-14T13:00:38.211Z,-2.10
2022-12-14T13:03:17.015Z,-2.00
2022-12-14T13:05:47.056Z,-1.90
2022-12-14T13:08:22.948Z,-1.90
2022-12-14T13:13:43.796Z,-1.80
2022-12-14T13:16:31.009Z,-1.80
2022-12-14T13:19:50.502Z,-1.80
2022-12-14T13:22:24.777Z,-1.80
2022-12-14T13:24:58.869Z,-1.90
2022-12-14T13:27:50.524Z,-1.80
2022-12-14T13:30:50.125Z,-1.80
2022-12-14T13:33:41.238Z,-1.90
2022-12-14T13:36:37.293Z,-2.00
2022-12-14T13:39:29.824Z,-2.00
2022-12-14T13:42:26.601Z,-2.00
2022-12-14T13:44:59.978Z,-2.10
2022-12-14T13:47:40.976Z,-0.90
2022-12-14T13:50:41.934Z,-2.20
2022-12-14T13:53:34.857Z,-2.20
2022-12-14T13:56:02.300Z,-2.40
2022-12-14T13:58:43.207Z,-2.30
2022-12-14T14:01:15.715Z,-2.30
2022-12-14T14:03:46.177Z,-2.40
2022-12-14T14:06:12.815Z,-2.40
2022-12-14T14:08:44.896Z,-2.50
2022-12-14T14:11:39.516Z,-2.50
2022-12-14T14:14:43.768Z,-2.60
2022-12-14T14:17:26.719Z,-2.70
2022-12-14T14:19:56.087Z,-2.80
2022-12-14T14:22:25.990Z,-2.80
2022-12-14T14:25:31.288Z,-2.90
2022-12-14T14:28:00.284Z,-2.90
2022-12-14T14:30:41.181Z,-3.00
2022-12-14T14:33:45.299Z,-3.00
2022-12-14T14:36:33.605Z,-3.10
2022-12-14T14:39:31.193Z,-3.10
2022-12-14T14:41:54.365Z,-3.10
2022-12-14T14:44:43.656Z,-3.20
2022-12-14T14:47:20.846Z,-3.20
2022-12-14T14:49:53.213Z,-3.20
2022-12-14T14:52:41.491Z,-3.30
2022-12-14T14:58:30.432Z,-3.30
2022-12-14T15:01:07.962Z,-3.30
2022-12-14T15:03:55.242Z,-3.40
2022-12-14T15:06:26.345Z,-3.40
2022-12-14T15:09:05.217Z,-3.40
2022-12-14T15:11:48.858Z,-3.40
2022-12-14T15:14:18.480Z,-3.40
2022-12-14T15:16:45.698Z,-3.40
2022-12-14T15:19:33.495Z,-3.40
2022-12-14T15:22:05.147Z,-3.40
2022-12-14T15:24:39.898Z,-3.50
2022-12-14T15:27:32.626Z,-3.50
2022-12-14T15:30:11.650Z,-3.50
2022-12-14T15:32:47.213Z,-3.40
2022-12-14T15:35:17.895Z,-3.60
2022-12-14T15:37:54.754Z,-3.60
2022-12-14T15:40:26.992Z,-3.70
2022-12-14T15:42:59.157Z,-3.70
2022-12-14T15:45:31.462Z,-3.70
2022-12-14T15:48:24.566Z,-3.70
2022-12-14T15:50:57.430Z,-3.70
2022-12-14T15:53:34.321Z,-3.80
2022-12-14T15:56:18.591Z,-3.60
2022-12-14T15:58:45.720Z,-3.80
2022-12-14T16:01:16.933Z,-3.80
2022-12-14T16:03:53.736Z,-3.80
2022-12-14T16:06:22.124Z,-3.80
2022-12-14T16:08:54.960Z,-3.80
2022-12-14T16:11:35.099Z,-3.80
2022-12-14T16:14:09.470Z,-3.80
2022-12-14T16:16:36.285Z,-3.90
2022-12-14T16:19:25.700Z,-3.90
2022-12-14T16:22:15.892Z,-3.90
2022-12-14T16:25:19.670Z,-3.90
2022-12-14T16:27:50.333Z,-4.00
2022-12-14T16:30:23.134Z,-4.00
2022-12-14T16:32:52.956Z,-4.00
2022-12-14T16:35:26.117Z,-4.10
2022-12-14T16:37:55.665Z,-4.00
2022-12-14T16:40:33.561Z,-4.00
2022-12-14T16:43:00.641Z,-4.00
2022-12-14T16:45:36.526Z,-4.00
2022-12-14T16:48:13.143Z,-4.10
2022-12-14T16:50:56.636Z,-4.10
2022-12-14T16:53:29.560Z,-4.10
2022-12-14T16:56:05.810Z,-4.20
2022-12-14T16:58:33.371Z,-4.30
2022-12-14T17:01:03.780Z,-4.40
2022-12-14T17:03:31.666Z,-4.50
2022-12-14T17:06:06.883Z,-5.00
2022-12-14T17:08:34.080Z,-4.40
2022-12-14T17:11:02.078Z,-4.40
2022-12-14T17:13:29.307Z,-4.70
2022-12-14T17:16:07.579Z,-4.40
2022-12-14T17:18:38.990Z,-4.40
2022-12-14T17:21:08.541Z,-4.40
2022-12-14T17:23:38.300Z,-4.40
2022-12-14T17:26:05.238Z,-4.40
2022-12-14T17:28:34.541Z,-4.40
2022-12-14T17:31:02.869Z,-4.40
2022-12-14T17:33:31.612Z,-4.40
2022-12-14T17:35:58.655Z,-4.50
2022-12-14T17:38:25.202Z,-4.50
2022-12-14T17:40:53.756Z,-4.50
2022-12-14T17:43:24.505Z,-4.60
2022-12-14T17:45:51.301Z,-4.60
2022-12-14T17:48:18.269Z,-4.60
2022-12-14T17:50:47.798Z,-4.60
2022-12-14T17:53:16.567Z,-4.60
2022-12-14T17:55:43.871Z,-4.60
2022-12-14T17:58:11.321Z,-4.60
2022-12-14T18:00:56.354Z,-4.60
2022-12-14T18:03:23.226Z,-4.70
2022-12-14T18:05:50.344Z,-4.40
2022-12-14T18:08:17.877Z,-4.70
2022-12-14T18:10:45.365Z,-4.70
2022-12-14T18:13:12.740Z,-4.80
2022-12-14T18:15:51.567Z,-4.80
2022-12-14T18:18:22.896Z,-4.70
2022-12-14T18:20:55.213Z,-4.80
2022-12-14T18:23:22.780Z,-4.80
2022-12-14T18:25:52.711Z,-4.80
2022-12-14T18:28:19.955Z,-4.80
2022-12-14T18:30:51.143Z,-5.30
2022-12-14T18:33:21.042Z,-5.30
2022-12-14T18:35:48.837Z,-4.90
2022-12-14T18:38:15.745Z,-4.90
2022-12-14T18:40:47.792Z,-4.90
2022-12-14T18:43:23.456Z,-4.90
2022-12-14T18:45:52.256Z,-4.90
2022-12-14T18:48:19.216Z,-5.00
2022-12-14T18:50:46.133Z,-5.00
2022-12-14T18:53:18.625Z,-5.20
2022-12-14T18:55:45.622Z,-5.00
2022-12-14T18:58:20.740Z,-4.90
2022-12-14T19:00:48.907Z,-5.00
2022-12-14T19:03:15.607Z,-5.00
2022-12-14T19:05:42.446Z,-5.20
2022-12-14T19:08:10.791Z,-5.10
2022-12-14T19:10:40.730Z,-5.10
2022-12-14T19:13:09.506Z,-5.20
2022-12-14T19:15:36.295Z,-5.10
2022-12-14T19:18:03.044Z,-5.40
2022-12-14T19:20:30.123Z,-5.20
2022-12-14T19:22:57.064Z,-5.30
2022-12-14T19:25:24.705Z,-5.40
2022-12-14T19:30:39.795Z,-5.20
2022-12-14T19:33:06.711Z,-5.10
2022-12-14T19:35:33.670Z,-5.10
2022-12-14T19:38:00.304Z,-5.20
2022-12-14T19:40:26.929Z,-5.10
2022-12-14T19:42:53.716Z,-5.10
2022-12-14T19:45:20.680Z,-5.20
2022-12-14T19:47:47.677Z,-5.10
2022-12-14T19:50:15.068Z,-5.10
2022-12-14T19:52:42.350Z,-5.10
2022-12-14T19:55:10.401Z,-5.10
2022-12-14T19:57:38.664Z,-5.10
2022-12-14T20:00:09.274Z,-5.30
2022-12-14T20:02:36.675Z,-5.20
2022-12-14T20:05:09.471Z,-5.20
2022-12-14T20:07:41.909Z,-5.20
2022-12-14T20:10:13.538Z,-5.20
2022-12-14T20:12:40.348Z,-5.20
2022-12-14T20:15:10.265Z,-5.50
2022-12-14T20:17:36.985Z,-5.30
2022-12-14T20:20:03.817Z,-5.10
2022-12-14T20:22:31.159Z,-5.30
2022-12-14T20:25:02.272Z,-5.30
2022-12-14T20:30:11.640Z,-5.30
2022-12-14T20:32:42.339Z,-5.30
2022-12-14T20:35:11.924Z,-5.40
2022-12-14T20:37:38.543Z,-5.30
2022-12-14T20:40:08.331Z,-5.40
2022-12-14T20:42:35.392Z,-5.40
2022-12-14T20:45:06.808Z,-5.50
2022-12-14T20:47:33.983Z,-5.40
2022-12-14T20:50:00.625Z,-5.60
2022-12-14T20:52:27.193Z,-5.40
2022-12-14T20:54:53.814Z,-5.40
2022-12-14T20:57:20.450Z,-5.60
2022-12-14T20:59:47.132Z,-5.40
2022-12-14T21:02:17.223Z,-5.40
2022-12-14T21:04:44.237Z,-5.40
2022-12-14T21:07:11.435Z,-5.40
2022-12-14T21:09:38.392Z,-5.40
2022-12-14T21:12:23.355Z,-5.40
2022-12-14T21:14:54.738Z,-5.50
2022-12-14T21:17:24.189Z,-5.50
2022-12-14T21:19:51.556Z,-5.50
2022-12-14T21:22:21.880Z,-5.40
2022-12-14T21:25:06.007Z,-5.50
2022-12-14T21:27:35.240Z,-7.50
2022-12-14T21:30:01.898Z,-5.70
2022-12-14T21:32:28.694Z,-5.70
2022-12-14T21:34:55.290Z,-5.50
2022-12-14T21:37:22.040Z,-5.60
2022-12-14T21:39:54.183Z,-5.60
2022-12-14T21:42:25.767Z,-5.60
2022-12-14T21:44:53.826Z,-5.70
2022-12-14T21:47:26.099Z,-5.90
2022-12-14T21:49:53.379Z,-5.70
2022-12-14T21:52:23.018Z,-5.80
2022-12-14T21:54:49.919Z,-5.70
2022-12-14T21:57:41.343Z,-5.80
2022-12-14T22:00:09.906Z,-5.80
2022-12-14T22:02:36.645Z,-5.70
2022-12-14T22:05:03.564Z,-5.80
2022-12-14T22:07:32.568Z,-5.80
2022-12-14T22:09:59.513Z,-5.80
2022-12-14T22:12:26.283Z,-5.60
2022-12-14T22:14:53.152Z,-5.80
2022-12-14T22:17:19.727Z,-5.80
2022-12-14T22:19:46.306Z,-5.80
2022-12-14T22:22:16.951Z,-5.70
2022-12-14T22:24:44.590Z,-5.90
2022-12-14T22:27:12.598Z,-6.00
2022-12-14T22:29:39.696Z,-5.90
2022-12-14T22:32:07.554Z,-4.70
2022-12-14T22:34:34.512Z,-5.90
2022-12-14T22:37:01.174Z,-5.90
2022-12-14T22:39:27.762Z,-5.90
2022-12-14T22:41:54.478Z,-5.80
2022-12-14T22:44:21.085Z,-5.80
2022-12-14T22:46:47.741Z,-5.80
2022-12-14T22:49:18.988Z,-5.80
2022-12-14T22:51:45.920Z,-5.80
2022-12-14T22:54:24.757Z,-5.80
2022-12-14T22:57:04.340Z,-5.80
2022-12-14T22:59:37.382Z,-5.80
2022-12-14T23:02:04.534Z,-5.80
2022-12-14T23:04:31.575Z,-5.80
2022-12-14T23:06:58.142Z,-5.90
2022-12-14T23:09:43.520Z,-5.90
2022-12-14T23:12:28.873Z,-5.90
2022-12-14T23:15:14.208Z,-6.60
2022-12-14T23:17:59.544Z,-6.00
2022-12-14T23:20:44.879Z,-6.00
2022-12-14T23:23:30.754Z,-6.10
2022-12-14T23:26:20.761Z,-6.10
2022-12-14T23:29:06.142Z,-6.20
2022-12-14T23:31:51.642Z,-6.30
2022-12-14T23:34:37.031Z,-6.30
2022-12-14T23:37:22.310Z,-6.30
2022-12-14T23:40:07.737Z,-6.30
2022-12-14T23:42:53.064Z,-6.30
2022-12-14T23:45:38.612Z,-6.20
2022-12-14T23:48:24.017Z,-6.20
2022-12-14T23:51:09.508Z,-6.20
2022-12-14T23:53:55.020Z,-6.20
2022-12-14T23:56:40.362Z,-6.20
2022-12-14T23:59:31.650Z,-6.80
